Time;durP1;ratioP1;P1;durP2;ratioP2;P2;SDS_P1;SDS_P2;PMS_P1;PMS_P2;Temp;Humidity;BMP_temperature;BMP_pressure;BME280_temperature;BME280_humidity;BME280_pressure;Samples;Min_cycle;Max_cycle;Signal;HPM_P1;HPM_P2
2023/01/23 00:00:55;;;;;;;7.80;4.05;;;;;;;;;;5004945;28;20091;-73
2023/01/23 00:03:21;;;;;;;10.65;4.35;;;;;;;;;;4999962;28;20045;-73
2023/01/23 00:05:56;;;;;;;8.60;3.92;;;;;;;;;;5000177;28;20148;-73
2023/01/23 00:08:21;;;;;;;;;;;;;;;;;;5003828;28;20367;-73
2023/01/23 00:10:47;;;;;;;12.85;4.97;;;4.00;1.00;;;;;;5016322;28;19925;-73
2023/01/23 00:13:13;;;;;;;11.80;4.45;;;3.80;1.00;;;;;;4990363;28;20039;-73
2023/01/23 00:15:39;;;;;;;8.82;4.22;;;;;;;;;;5013588;28;20500;-73
2023/01/23 00:18:05;;;;;;;11.82;5.10;;;3.90;1.00;;;;;;4987913;28;20041;-73
2023/01/23 00:20:31;;;;;;;11.57;4.38;;;;;;;;;;5004625;28;20041;-73
2023/01/23 00:22:57;;;;;;;9.43;4.18;;;;;;;;;;4996114;28;20065;-74
2023/01/23 00:25:23;;;;;;;10.60;4.45;;;;;;;;;;5009418;28;20073;-74
2023/01/23 00:27:48;;;;;;;12.10;4.35;;;3.90;1.00;;;;;;5011750;28;20042;-73
2023/01/23 00:30:16;;;;;;;9.43;4.38;;;;;;;;;;5011686;28;20042;-73
2023/01/23 00:32:42;;;;;;;11.13;4.78;;;;;;;;;;5011664;28;20129;-73
2023/01/23 00:35:08;;;;;;;11.75;4.90;;;;;;;;;;5004910;28;20069;-73
2023/01/23 00:37:34;;;;;;;12.57;5.47;;;;;;;;;;4978514;28;20046;-73
2023/01/23 00:40:00;;;;;;;10.13;5.15;;;;;;;;;;4964473;28;20077;-73
2023/01/23 00:42:26;;;;;;;10.30;4.18;;;;;;;;;;4976072;28;20042;-73
2023/01/23 00:44:52;;;;;;;10.57;4.80;;;;;;;;;;5004532;28;20570;-73
2023/01/23 00:47:17;;;;;;;10.88;4.05;;;3.90;1.00;;;;;;5000408;28;20125;-73
2023/01/23 00:49:44;;;;;;;9.10;3.90;;;;;;;;;;5004829;28;20094;-74
2023/01/23 00:52:10;;;;;;;13.35;3.60;;;4.00;1.00;;;;;;5001314;28;20074;-73
2023/01/23 00:54:37;;;;;;;8.90;4.15;;;;;;;;;;4997069;28;20530;-73
2023/01/23 00:57:03;;;;;;;14.98;4.70;;;;;;;;;;4978635;28;20050;-73
2023/01/23 00:59:29;;;;;;;10.90;4.30;;;;;;;;;;4980184;28;20116;-73
2023/01/23 01:01:55;;;;;;;10.50;4.05;;;;;;;;;;4979716;28;20375;-73
2023/01/23 01:04:21;;;;;;;11.93;4.57;;;;;;;;;;4986665;28;20038;-74
2023/01/23 01:06:47;;;;;;;10.85;4.68;;;;;;;;;;4980135;28;20615;-73
2023/01/23 01:09:13;;;;;;;13.35;4.50;;;;;;;;;;4980443;28;20080;-73
2023/01/23 01:11:39;;;;;;;10.48;4.40;;;3.90;1.00;;;;;;4980705;28;20042;-73
2023/01/23 01:14:05;;;;;;;10.02;4.20;;;3.70;1.00;;;;;;4976272;28;20045;-73
2023/01/23 01:16:31;;;;;;;10.15;4.47;;;;;;;;;;4992303;28;20473;-73
2023/01/23 01:18:57;;;;;;;10.45;4.80;;;;;;;;;;4967998;28;20037;-73
2023/01/23 01:21:23;;;;;;;15.35;5.57;;;;;;;;;;4986620;28;20438;-73
2023/01/23 01:23:49;;;;;;;10.18;4.95;;;;;;;;;;4966902;28;20706;-74
2023/01/23 01:26:15;;;;;;;15.18;5.07;;;;;;;;;;4995797;28;20045;-73
2023/01/23 01:28:41;;;;;;;10.68;4.82;;;;;;;;;;4978792;28;20038;-73
2023/01/23 01:31:09;;;;;;;11.27;5.00;;;;;;;;;;4973057;28;20057;-73
2023/01/23 01:33:36;;;;;;;12.82;4.72;;;;;;;;;;4974656;28;20193;-74
2023/01/23 01:36:03;;;;;;;9.52;4.90;;;;;;;;;;4991461;28;20038;-74
2023/01/23 01:38:29;;;;;;;11.48;4.95;;;;;;;;;;4978677;28;20077;-73
2023/01/23 01:40:56;;;;;;;10.07;4.90;;;;;;;;;;4979352;28;20039;-73
2023/01/23 01:43:23;;;;;;;10.48;5.50;;;;;;;;;;4978997;28;20053;-73
2023/01/23 01:45:58;;;;;;;10.38;5.63;;;;;;;;;;4993120;28;20114;-74
2023/01/23 01:48:29;;;;;;;12.90;6.15;;;3.80;1.00;;;;;;4990066;28;20496;-74
2023/01/23 01:50:57;;;;;;;13.07;5.22;;;3.80;1.00;;;;;;4989861;28;20403;-73
2023/01/23 01:53:25;;;;;;;12.80;5.25;;;;;;;;;;4978724;28;20045;-74
2023/01/23 01:55:51;;;;;;;11.50;5.28;;;;;;;;;;4980345;28;20046;-74
2023/01/23 01:58:17;;;;;;;12.95;5.72;;;;;;;;;;4994696;28;20122;-74
2023/01/23 02:00:43;;;;;;;9.90;5.00;;;;;;;;;;4992039;28;20775;-73
2023/01/23 02:03:10;;;;;;;11.20;5.20;;;;;;;;;;4990284;28;20042;-73
2023/01/23 02:05:39;;;;;;;11.43;6.15;;;;;;;;;;4974047;28;20126;-73
2023/01/23 02:08:37;;;;;;;12.65;5.55;;;4.20;1.00;;;;;;4974034;28;20034;-74
2023/01/23 02:11:04;;;;;;;10.30;5.60;;;;;;;;;;5007444;28;20041;-73
2023/01/23 02:13:38;;;;;;;17.17;6.13;;;;;;;;;;4993601;28;20124;-73
2023/01/23 02:16:13;;;;;;;11.95;5.70;;;4.20;1.00;;;;;;5009545;28;20045;-73
2023/01/23 02:18:43;;;;;;;13.43;5.38;;;;;;;;;;5010548;28;20045;-73
2023/01/23 02:21:11;;;;;;;13.30;6.32;;;4.10;1.00;;;;;;5009645;28;20077;-73
2023/01/23 02:23:37;;;;;;;15.60;6.57;;;;;;;;;;5018092;28;20025;-74
2023/01/23 02:26:04;;;;;;;15.38;6.25;;;;;;;;;;5015703;28;20403;-74
2023/01/23 02:28:38;;;;;;;13.88;6.25;;;;;;;;;;4999318;28;20090;-74
2023/01/23 02:31:04;;;;;;;11.38;7.25;;;;;;;;;;5001420;28;20705;-73
2023/01/23 02:33:30;;;;;;;12.10;5.70;;;;;;;;;;4998201;28;20114;-73
2023/01/23 02:35:57;;;;;;;13.35;6.00;;;;;;;;;;5018502;28;20052;-74
2023/01/23 02:38:26;;;;;;;11.90;5.82;;;;;;;;;;4989526;28;20060;-74
2023/01/23 02:40:53;;;;;;;10.90;5.70;;;;;;;;;;5012183;28;20666;-74
2023/01/23 02:43:20;;;;;;;14.63;6.90;;;;;;;;;;4996237;28;20030;-73
2023/01/23 02:45:47;;;;;;;14.57;7.18;;;;;;;;;;4999085;28;20116;-74
2023/01/23 02:48:13;;;;;;;11.95;5.70;;;;;;;;;;4984409;28;20034;-74
2023/01/23 02:50:40;;;;;;;11.45;5.43;;;;;;;;;;4980004;28;20037;-74
2023/01/23 02:53:06;;;;;;;9.55;4.88;;;;;;;;;;5020387;28;20414;-73
2023/01/23 02:55:32;;;;;;;10.00;5.10;;;3.70;1.00;;;;;;5004961;28;20049;-74
2023/01/23 03:00:43;;;;;;;;;;;;;;;;;;5013873;28;20053;-74
2023/01/23 03:03:09;;;;;;;8.07;5.10;;;;;;;;;;5010512;28;19944;-73
2023/01/23 03:05:35;;;;;;;11.90;5.38;;;;;;;;;;5010233;28;20411;-73
2023/01/23 03:08:01;;;;;;;10.00;5.30;;;;;;;;;;5018556;28;20033;-74
2023/01/23 03:10:29;;;;;;;11.73;6.15;;;;;;;;;;4999883;28;20042;-74
2023/01/23 03:12:57;;;;;;;11.40;5.53;;;;;;;;;;5013045;28;20121;-74
2023/01/23 03:15:23;;;;;;;14.40;4.95;;;;;;;;;;5012430;28;20120;-74
2023/01/23 03:17:49;;;;;;;11.05;5.22;;;;;;;;;;4998515;28;20046;-74
2023/01/23 03:20:18;;;;;;;13.80;6.00;;;;;;;;;;4994671;28;20046;-73
2023/01/23 03:22:45;;;;;;;9.30;5.30;;;;;;;;;;5012414;28;20034;-73
2023/01/23 03:25:11;;;;;;;11.80;5.10;;;;;;;;;;5014886;28;20391;-74
2023/01/23 03:27:37;;;;;;;10.45;5.07;;;3.70;1.00;;;;;;4995195;28;20506;-74
2023/01/23 03:30:13;;;;;;;10.07;5.28;;;;;;;;;;5016868;28;20064;-74
2023/01/23 03:32:42;;;;;;;14.40;5.18;;;;;;;;;;5010087;28;20095;-75
2023/01/23 03:35:09;;;;;;;13.77;5.63;;;;;;;;;;4996684;28;20092;-75
2023/01/23 03:37:35;;;;;;;11.85;5.03;;;4.60;1.00;;;;;;5011528;28;20088;-74
2023/01/23 03:42:46;;;;;;;;;;;3.80;1.00;;;;;;5002426;28;20053;-74
2023/01/23 03:45:12;;;;;;;9.93;4.60;;;;;;;;;;5009100;28;20352;-74
2023/01/23 03:47:37;;;;;;;10.65;5.25;;;3.70;1.00;;;;;;5001825;28;20433;-74
2023/01/23 03:50:04;;;;;;;8.65;5.20;;;;;;;;;;4994614;28;20041;-74
2023/01/23 03:52:30;;;;;;;10.98;5.22;;;;;;;;;;5001299;28;20041;-74
2023/01/23 03:54:56;;;;;;;10.05;5.28;;;;;;;;;;5000747;28;20037;-74
2023/01/23 03:57:23;;;;;;;11.10;5.03;;;;;;;;;;5008148;28;20041;-74
2023/01/23 03:59:49;;;;;;;11.23;5.05;;;;;;;;;;4994786;28;20069;-75
2023/01/23 04:02:15;;;;;;;9.63;5.18;;;;;;;;;;4987932;28;20072;-74
2023/01/23 04:04:41;;;;;;;8.88;4.85;;;3.70;1.00;;;;;;5003543;28;20042;-75
2023/01/23 04:07:07;;;;;;;14.50;5.25;;;;;;;;;;4988228;28;20029;-74
2023/01/23 04:09:33;;;;;;;8.85;4.75;;;;;;;;;;5009681;28;20415;-75
2023/01/23 04:12:00;;;;;;;10.50;4.80;;;;;;;;;;4993415;28;20133;-74
2023/01/23 04:14:29;;;;;;;8.85;5.03;;;;;;;;;;4987894;28;20380;-74
2023/01/23 04:16:55;;;;;;;11.32;5.22;;;;;;;;;;4989301;28;20487;-76
2023/01/23 04:19:21;;;;;;;11.73;5.00;;;3.60;1.00;;;;;;4988679;28;20037;-75
2023/01/23 04:21:47;;;;;;;10.48;4.70;;;3.60;1.00;;;;;;4993596;28;20567;-75
2023/01/23 04:24:14;;;;;;;8.88;4.63;;;;;;;;;;5021675;28;20038;-75
2023/01/23 04:26:39;;;;;;;8.95;4.43;;;3.60;1.00;;;;;;5010975;28;20495;-75
2023/01/23 04:29:05;;;;;;;9.68;5.18;;;3.60;1.00;;;;;;4990474;28;20040;-75
2023/01/23 04:31:31;;;;;;;10.07;5.03;;;;;;;;;;4986983;28;20077;-75
2023/01/23 04:33:57;;;;;;;13.10;4.70;;;;;;;;;;5011465;28;20041;-75
2023/01/23 04:36:23;;;;;;;11.55;4.72;;;;;;;;;;5005312;28;20519;-75
2023/01/23 04:38:49;;;;;;;13.55;5.30;;;;;;;;;;4991971;28;20037;-75
2023/01/23 04:41:23;;;;;;;10.30;5.28;;;;;;;;;;4988271;28;20049;-75
2023/01/23 04:43:49;;;;;;;8.52;4.40;;;;;;;;;;5008670;28;20061;-75
2023/01/23 04:46:15;;;;;;;9.75;4.75;;;;;;;;;;4982115;28;20037;-76
2023/01/23 04:48:41;;;;;;;9.73;4.75;;;;;;;;;;4995696;28;20042;-75
2023/01/23 04:51:07;;;;;;;9.82;4.78;;;;;;;;;;4988156;28;20087;-75
2023/01/23 04:53:33;;;;;;;9.82;4.82;;;3.70;1.00;;;;;;5019338;28;20045;-76
2023/01/23 04:56:00;;;;;;;11.48;5.20;;;;;;;;;;4975701;28;20041;-75
2023/01/23 04:58:26;;;;;;;10.73;5.20;;;;;;;;;;4984954;28;20128;-75
2023/01/23 05:00:52;;;;;;;11.68;4.65;;;3.60;1.00;;;;;;5007821;28;20510;-75
2023/01/23 05:03:18;;;;;;;9.93;4.97;;;;;;;;;;5007195;28;20594;-75
2023/01/23 05:05:45;;;;;;;10.35;5.75;;;;;;;;;;4992787;28;20454;-75
2023/01/23 05:08:11;;;;;;;9.65;4.60;;;;;;;;;;4992484;28;20038;-75
2023/01/23 05:10:37;;;;;;;10.57;5.10;;;;;;;;;;4992033;28;20053;-75
2023/01/23 05:13:03;;;;;;;10.35;4.47;;;;;;;;;;4989325;28;20034;-74
2023/01/23 05:15:30;;;;;;;9.18;4.47;;;;;;;;;;4972624;28;20689;-74
2023/01/23 05:17:56;;;;;;;11.63;5.30;;;;;;;;;;4987084;28;20038;-75
2023/01/23 05:20:25;;;;;;;10.38;4.80;;;;;;;;;;4992753;28;20061;-74
2023/01/23 05:22:51;;;;;;;11.50;5.25;;;;;;;;;;5003000;28;20097;-74
2023/01/23 05:25:21;;;;;;;12.73;5.30;;;;;;;;;;5006185;28;20072;-74
2023/01/23 05:27:47;;;;;;;9.48;4.55;;;;;;;;;;5008693;28;20168;-75
2023/01/23 05:30:14;;;;;;;9.70;4.78;;;;;;;;;;4992324;28;20048;-75
2023/01/23 05:32:39;;;;;;;11.80;5.35;;;3.60;1.00;;;;;;4989464;28;20038;-75
2023/01/23 05:35:05;;;;;;;9.95;4.97;;;3.50;1.00;;;;;;4993637;28;20041;-75
2023/01/23 05:37:31;;;;;;;11.00;5.07;;;;;;;;;;5009206;28;20100;-75
2023/01/23 05:39:57;;;;;;;10.35;5.13;;;;;;;;;;5009831;28;20450;-75
2023/01/23 05:42:23;;;;;;;11.93;4.95;;;;;;;;;;4992364;28;20112;-75
2023/01/23 05:44:49;;;;;;;12.50;5.18;;;;;;;;;;5006044;28;20033;-75
2023/01/23 05:47:15;;;;;;;11.43;5.20;;;;;;;;;;4982306;28;20070;-75
2023/01/23 05:49:41;;;;;;;10.88;5.85;;;;;;;;;;5005577;28;20037;-75
2023/01/23 05:52:08;;;;;;;14.32;6.45;;;;;;;;;;4998674;28;20044;-75
2023/01/23 05:54:34;;;;;;;9.38;5.65;;;;;;;;;;4999109;28;20057;-75
2023/01/23 05:56:59;;;;;;;10.52;5.63;;;3.60;1.00;;;;;;4962623;28;20506;-75
2023/01/23 05:59:25;;;;;;;11.95;6.35;;;;;;;;;;4993789;28;20034;-75
2023/01/23 06:01:51;;;;;;;12.85;6.53;;;;;;;;;;4977362;28;20092;-75
2023/01/23 06:04:18;;;;;;;12.05;6.63;;;;;;;;;;4996242;28;20041;-76
2023/01/23 06:06:44;;;;;;;11.07;6.20;;;;;;;;;;4979057;28;20092;-76
2023/01/23 06:09:10;;;;;;;11.95;6.35;;;;;;;;;;4963497;28;20035;-76
2023/01/23 06:11:37;;;;;;;14.45;7.13;;;;;;;;;;4992952;28;20041;-76
2023/01/23 06:14:02;;;;;;;13.70;6.63;;;3.60;1.00;;;;;;4972379;28;20046;-72
2023/01/23 06:16:28;;;;;;;14.77;7.13;;;;;;;;;;4982264;28;20141;-72
2023/01/23 06:18:54;;;;;;;14.10;6.35;;;;;;;;;;4978510;28;20037;-72
2023/01/23 06:21:20;;;;;;;18.05;7.20;;;;;;;;;;5002600;28;20037;-73
2023/01/23 06:23:46;;;;;;;14.23;6.65;;;;;;;;;;4977808;28;20034;-72
2023/01/23 06:26:13;;;;;;;16.33;8.13;;;;;;;;;;4995616;28;20048;-74
2023/01/23 06:28:39;;;;;;;14.52;7.80;;;4.00;1.00;;;;;;4997055;28;20591;-73
2023/01/23 06:31:08;;;;;;;18.10;7.68;;;;;;;;;;5014034;28;20046;-74
2023/01/23 06:33:33;;;;;;;11.85;7.03;;;4.00;1.00;;;;;;5013184;28;20221;-79
2023/01/23 06:36:00;;;;;;;11.65;6.93;;;3.80;1.00;;;;;;5018824;28;20483;-79
2023/01/23 06:38:27;;;;;;;15.30;7.15;;;3.50;1.00;;;;;;5006672;28;20102;-78
2023/01/23 06:40:52;;;;;;;14.80;7.82;;;3.50;1.00;;;;;;5017644;28;20038;-78
2023/01/23 06:43:19;;;;;;;16.50;7.72;;;;;;;;;;5024069;28;20030;-77
2023/01/23 06:45:45;;;;;;;15.65;7.25;;;3.40;1.00;;;;;;5013208;28;20038;-78
2023/01/23 06:48:12;;;;;;;16.02;7.30;;;3.40;1.00;;;;;;4995258;28;20037;-76
2023/01/23 06:50:38;;;;;;;14.20;7.78;;;;;;;;;;4995730;28;20050;-76
2023/01/23 06:53:04;;;;;;;16.00;7.22;;;;;;;;;;4995974;28;20038;-75
2023/01/23 06:55:31;;;;;;;16.05;7.75;;;;;;;;;;4995065;28;20499;-75
2023/01/23 06:57:57;;;;;;;15.85;8.23;;;;;;;;;;4985421;28;20042;-76
2023/01/23 07:00:22;;;;;;;14.25;7.60;;;3.30;1.00;;;;;;4991367;28;20136;-75
2023/01/23 07:02:49;;;;;;;13.13;8.68;;;;;;;;;;4995404;28;20502;-80
2023/01/23 07:05:14;;;;;;;17.42;7.55;;;3.30;1.00;;;;;;5012980;28;20088;-78
2023/01/23 07:07:40;;;;;;;15.70;8.35;;;3.30;1.00;;;;;;4993867;28;20034;-80
2023/01/23 07:10:06;;;;;;;14.25;8.85;;;;;;;;;;4979560;28;20034;-79
2023/01/23 07:12:33;;;;;;;16.88;8.27;;;;;;;;;;4994983;28;20049;-81
2023/01/23 07:14:59;;;;;;;16.67;8.93;;;;;;;;;;5013610;28;20131;-79
2023/01/23 07:17:25;;;;;;;14.23;7.90;;;;;;;;;;4994878;28;20050;-82
2023/01/23 07:19:51;;;;;;;16.30;8.50;;;;;;;;;;5008827;28;20065;-76
2023/01/23 07:22:17;;;;;;;17.33;9.05;;;;;;;;;;4994709;28;20045;-74
2023/01/23 07:24:43;;;;;;;16.05;8.93;;;;;;;;;;4995175;28;20045;-78
2023/01/23 07:27:09;;;;;;;17.27;8.63;;;;;;;;;;4995940;28;20129;-79
2023/01/23 07:29:35;;;;;;;15.80;9.20;;;;;;;;;;5013954;28;20084;-80
2023/01/23 07:32:01;;;;;;;18.75;8.82;;;;;;;;;;4971615;28;20145;-75
2023/01/23 07:34:28;;;;;;;17.02;9.07;;;;;;;;;;4985145;28;20042;-77
2023/01/23 07:36:53;;;;;;;20.98;9.68;;;3.40;1.00;;;;;;4992026;28;20034;-74
2023/01/23 07:39:19;;;;;;;20.67;9.38;;;3.20;1.00;;;;;;5000940;28;20045;-74
2023/01/23 07:41:44;;;;;;;14.45;8.00;;;3.00;1.00;;;;;;4989985;28;20033;-80
2023/01/23 07:44:16;;;;;;;15.65;9.30;;;2.90;1.00;;;;;;4999328;28;20045;-80
2023/01/23 07:46:42;;;;;;;18.73;9.10;;;;;;;;;;5001487;28;20034;-80
2023/01/23 07:49:08;;;;;;;17.80;8.98;;;;;;;;;;5022709;28;20042;-78
2023/01/23 07:51:34;;;;;;;17.52;8.98;;;3.20;1.00;;;;;;4979008;28;20037;-75
2023/01/23 07:54:00;;;;;;;15.57;9.05;;;3.20;1.00;;;;;;5001581;28;20037;-75
2023/01/23 07:56:26;;;;;;;16.83;9.57;;;;;;;;;;4994065;28;20042;-76
2023/01/23 07:58:52;;;;;;;16.65;9.38;;;;;;;;;;4994032;28;20124;-78
2023/01/23 08:01:18;;;;;;;13.10;9.02;;;;;;;;;;4994282;28;20038;-75
2023/01/23 08:03:44;;;;;;;16.73;8.82;;;;;;;;;;5011891;28;20076;-76
2023/01/23 08:06:10;;;;;;;15.88;9.00;;;;;;;;;;4986394;28;20507;-75
2023/01/23 08:08:36;;;;;;;18.55;9.23;;;;;;;;;;4993199;28;20526;-75
2023/01/23 08:11:03;;;;;;;17.38;8.70;;;;;;;;;;4977655;28;20041;-75
2023/01/23 08:13:29;;;;;;;17.98;9.70;;;;;;;;;;4988465;28;20112;-77
2023/01/23 08:15:57;;;;;;;15.63;9.18;;;;;;;;;;4980026;28;20060;-77
2023/01/23 08:18:23;;;;;;;16.17;9.25;;;;;;;;;;5002591;28;20095;-79
2023/01/23 08:20:55;;;;;;;15.23;8.40;;;;;;;;;;4984780;28;20038;-74
2023/01/23 08:23:25;;;;;;;16.27;8.95;;;;;;;;;;4998636;28;20649;-75
2023/01/23 08:25:55;;;;;;;18.08;8.98;;;;;;;;;;4985566;28;20030;-75
2023/01/23 08:28:21;;;;;;;18.60;9.30;;;;;;;;;;4978968;28;20045;-78
2023/01/23 08:30:48;;;;;;;16.90;9.60;;;;;;;;;;4997801;28;20054;-75
2023/01/23 08:33:13;;;;;;;15.27;8.25;;;3.60;1.00;;;;;;4998119;28;20140;-75
2023/01/23 08:35:39;;;;;;;15.18;9.73;;;;;;;;;;4994827;28;20507;-76
2023/01/23 08:38:07;;;;;;;16.45;8.93;;;;;;;;;;5002682;28;20045;-76
2023/01/23 08:40:33;;;;;;;16.85;9.07;;;3.70;1.00;;;;;;4982881;28;20507;-76
2023/01/23 08:42:59;;;;;;;17.05;9.65;;;;;;;;;;4981417;28;20084;-76
2023/01/23 08:45:25;;;;;;;14.82;9.13;;;;;;;;;;4980114;28;20390;-78
2023/01/23 08:47:51;;;;;;;15.30;8.73;;;;;;;;;;4979398;28;20038;-77
2023/01/23 08:50:17;;;;;;;17.33;9.55;;;;;;;;;;5000250;28;20045;-75
2023/01/23 08:52:44;;;;;;;14.40;8.50;;;;;;;;;;4978554;28;20049;-76
2023/01/23 08:55:11;;;;;;;17.65;9.02;;;;;;;;;;4981733;28;20049;-73
2023/01/23 08:57:37;;;;;;;16.88;10.18;;;;;;;;;;4999775;28;20042;-78
2023/01/23 09:00:04;;;;;;;15.23;8.50;;;;;;;;;;5000785;28;20376;-79
2023/01/23 09:02:29;;;;;;;17.85;9.68;;;3.90;1.00;;;;;;4977001;28;20096;-76
2023/01/23 09:04:55;;;;;;;17.27;8.73;;;;;;;;;;4993869;28;20030;-79
2023/01/23 09:07:21;;;;;;;18.05;8.13;;;;;;;;;;4976456;28;20087;-74
2023/01/23 09:09:47;;;;;;;19.05;9.45;;;;;;;;;;4996236;28;20111;-78
2023/01/23 09:12:13;;;;;;;17.05;8.60;;;;;;;;;;4976231;28;20046;-78
2023/01/23 09:14:39;;;;;;;15.52;8.50;;;;;;;;;;4981865;28;20036;-78
2023/01/23 09:17:05;;;;;;;15.07;8.27;;;;;;;;;;4975997;28;20046;-78
2023/01/23 09:19:32;;;;;;;15.70;9.07;;;;;;;;;;4981249;28;20029;-77
2023/01/23 09:21:58;;;;;;;16.20;8.50;;;;;;;;;;4976445;28;20046;-79
2023/01/23 09:24:24;;;;;;;14.77;8.48;;;;;;;;;;4992350;28;20089;-77
2023/01/23 09:26:50;;;;;;;15.23;8.45;;;;;;;;;;4996402;28;20041;-75
2023/01/23 09:29:16;;;;;;;16.67;9.27;;;4.10;1.00;;;;;;4977326;28;20104;-76
2023/01/23 09:31:42;;;;;;;16.02;8.70;;;;;;;;;;4996678;28;20120;-77
2023/01/23 09:34:07;;;;;;;15.15;8.90;;;4.00;1.00;;;;;;5004007;28;20450;-76
2023/01/23 09:36:34;;;;;;;14.77;8.05;;;;;;;;;;4984292;28;20100;-76
2023/01/23 09:39:00;;;;;;;16.42;8.23;;;;;;;;;;4995033;28;20045;-80
2023/01/23 09:41:27;;;;;;;15.13;8.95;;;;;;;;;;4992721;28;20038;-80
2023/01/23 09:43:57;;;;;;;17.75;8.05;;;;;;;;;;4979517;28;20105;-83
2023/01/23 09:46:36;;;;;;;18.50;8.98;;;;;;;;;;4983705;28;20095;-80
2023/01/23 09:49:12;;;;;;;19.55;9.80;;;4.50;1.00;;;;;;4981932;28;20048;-80
2023/01/23 09:51:59;;;;;;;15.18;9.07;;;4.40;1.00;;;;;;4991638;28;20518;-80
2023/01/23 09:54:43;;;;;;;13.30;7.72;;;;;;;;;;4977849;28;20064;-80
2023/01/23 09:57:32;;;;;;;14.85;8.05;;;;;;;;;;5001651;28;20054;-82
2023/01/23 10:00:00;;;;;;;14.57;7.32;;;;;;;;;;4960743;28;20496;-80
2023/01/23 10:02:27;;;;;;;15.82;8.77;;;;;;;;;;5013428;28;20030;-80
2023/01/23 10:04:53;;;;;;;14.45;7.55;;;;;;;;;;4971257;28;20116;-82
2023/01/23 10:07:30;;;;;;;15.40;7.68;;;;;;;;;;5004953;28;20035;-80
2023/01/23 10:10:15;;;;;;;13.10;8.18;;;;;;;;;;5006034;28;20046;-83
2023/01/23 10:12:52;;;;;;;13.82;7.82;;;;;;;;;;4988286;28;20037;-80
2023/01/23 10:15:37;;;;;;;13.75;7.30;;;;;;;;;;4984343;28;20041;-80
2023/01/23 10:18:02;;;;;;;;;;;;;;;;;;5013460;28;20037;-80
2023/01/23 10:20:43;;;;;;;11.95;6.57;;;;;;;;;;5003393;28;19922;-81
2023/01/23 10:23:09;;;;;;;12.48;6.13;;;;;;;;;;4983938;28;20045;-83
2023/01/23 10:25:36;;;;;;;10.57;5.78;;;5.50;1.00;;;;;;4982080;28;20034;-80
2023/01/23 10:28:24;;;;;;;11.68;6.47;;;;;;;;;;4997583;28;20033;-80
2023/01/23 10:30:55;;;;;;;11.13;6.43;;;5.30;1.00;;;;;;5001090;28;20044;-80
2023/01/23 10:33:34;;;;;;;9.80;6.10;;;;;;;;;;5021050;28;20085;-81
2023/01/23 10:36:17;;;;;;;10.98;5.95;;;;;;;;;;5007852;28;20124;-82
2023/01/23 10:38:48;;;;;;;10.68;5.65;;;;;;;;;;4992018;28;20038;-80
2023/01/23 10:41:18;;;;;;;9.82;5.93;;;;;;;;;;4992623;28;20105;-80
2023/01/23 10:43:46;;;;;;;9.98;5.22;;;;;;;;;;4996432;28;20698;-82
2023/01/23 10:46:16;;;;;;;10.30;5.30;;;;;;;;;;4992686;28;20135;-79
2023/01/23 10:48:47;;;;;;;9.77;5.22;;;;;;;;;;4998660;28;20041;-79
2023/01/23 10:51:46;;;;;;;9.55;4.85;;;5.40;1.00;;;;;;4992224;28;20046;-81
2023/01/23 10:54:12;;;;;;;8.73;4.68;;;;;;;;;;4962207;28;20065;-80
2023/01/23 10:56:51;;;;;;;9.32;4.57;;;;;;;;;;4986579;28;20050;-81
2023/01/23 10:59:29;;;;;;;8.63;4.72;;;;;;;;;;4999412;28;20091;-80
2023/01/23 11:02:13;;;;;;;8.73;4.90;;;;;;;;;;5020490;28;20118;-80
2023/01/23 11:04:43;;;;;;;6.93;3.70;;;;;;;;;;5027891;28;20038;-80
2023/01/23 11:07:14;;;;;;;7.93;4.18;;;;;;;;;;5001068;28;20034;-80
2023/01/23 11:09:48;;;;;;;8.85;4.00;;;;;;;;;;4986908;28;20391;-81
2023/01/23 11:12:16;;;;;;;9.60;4.25;;;;;;;;;;5004836;28;20052;-82
2023/01/23 11:14:43;;;;;;;7.85;3.75;;;;;;;;;;4987521;28;20063;-80
2023/01/23 11:17:14;;;;;;;6.43;3.42;;;5.80;1.00;;;;;;5020705;28;20050;-80
2023/01/23 11:19:41;;;;;;;6.13;3.13;;;;;;;;;;4987973;28;20038;-80
2023/01/23 11:22:26;;;;;;;5.75;2.88;;;6.30;1.00;;;;;;5000518;28;20121;-80
2023/01/23 11:24:52;;;;;;;5.55;2.70;;;6.30;1.00;;;;;;4994216;28;20101;-80
2023/01/23 11:27:25;;;;;;;5.90;2.33;;;;;;;;;;5001821;28;20030;-81
2023/01/23 11:30:30;;;;;;;6.15;2.53;;;;;;;;;;4988346;28;20065;-81
2023/01/23 11:32:56;;;;;;;4.80;2.00;;;;;;;;;;4926141;29;20117;-82
2023/01/23 11:35:59;;;;;;;5.65;2.40;;;6.10;1.00;;;;;;4947721;29;20327;-80
2023/01/23 11:38:26;;;;;;;4.88;2.22;;;;;;;;;;4949811;28;20053;-81
2023/01/23 11:40:52;;;;;;;5.65;3.53;;;;;;;;;;5005051;28;20113;-82
2023/01/23 11:43:19;;;;;;;5.97;3.72;;;;;;;;;;4993243;28;20034;-82
2023/01/23 11:45:45;;;;;;;5.95;3.72;;;;;;;;;;5002291;28;20045;-80
2023/01/23 11:48:23;;;;;;;5.25;2.55;;;;;;;;;;5013403;28;20061;-82
2023/01/23 11:50:50;;;;;;;5.32;3.40;;;6.00;1.00;;;;;;5002197;28;20045;-80
2023/01/23 11:53:19;;;;;;;5.82;2.58;;;6.10;1.00;;;;;;5024296;28;20053;-80
2023/01/23 11:56:04;;;;;;;5.15;2.50;;;;;;;;;;5021705;28;20069;-80
2023/01/23 11:59:04;;;;;;;7.15;4.10;;;6.00;99.90;;;;;;5002582;28;20086;-80
2023/01/23 12:01:38;;;;;;;7.65;5.30;;;5.90;1.00;;;;;;5002638;28;20046;-80
2023/01/23 12:04:26;;;;;;;6.75;3.47;;;;;;;;;;5009585;28;20033;-81
2023/01/23 12:07:07;;;;;;;7.45;3.25;;;;;;;;;;5008214;28;20033;-80
2023/01/23 12:09:47;;;;;;;6.03;3.28;;;;;;;;;;4999486;28;20503;-75
2023/01/23 12:12:25;;;;;;;19.08;17.10;;;;;;;;;;4983307;28;20046;-82
2023/01/23 12:15:10;;;;;;;9.82;6.38;;;;;;;;;;5004326;28;20049;-74
2023/01/23 12:17:49;;;;;;;22.55;16.38;;;6.10;99.90;;;;;;4998741;28;20124;-75
2023/01/23 12:20:21;;;;;;;7.75;4.40;;;;;;;;;;4993712;28;20053;-76
2023/01/23 12:23:17;;;;;;;9.30;4.68;;;5.60;99.90;;;;;;5010054;28;20426;-75
2023/01/23 12:25:48;;;;;;;6.97;4.40;;;;;;;;;;5008937;28;20057;-75
2023/01/23 12:28:16;;;;;;;8.45;6.30;;;;;;;;;;5012074;28;20091;-81
2023/01/23 12:30:52;;;;;;;7.40;5.10;;;;;;;;;;4996092;28;20088;-77
2023/01/23 12:33:18;;;;;;;6.05;3.55;;;;;;;;;;5013407;28;20041;-82
2023/01/23 12:35:44;;;;;;;5.63;3.00;;;;;;;;;;4997881;28;20030;-81
2023/01/23 12:38:10;;;;;;;7.22;3.22;;;;;;;;;;5017843;28;20073;-81
2023/01/23 12:40:46;;;;;;;6.55;3.42;;;;;;;;;;4993710;28;20038;-81
2023/01/23 12:43:22;;;;;;;7.68;4.28;;;;;;;;;;4987537;28;20430;-79
2023/01/23 12:45:52;;;;;;;7.35;3.58;;;;;;;;;;4986768;28;20096;-78
2023/01/23 12:48:21;;;;;;;5.80;3.45;;;;;;;;;;4970927;28;20045;-80
2023/01/23 12:50:50;;;;;;;6.30;3.45;;;;;;;;;;5009132;28;20080;-80
2023/01/23 12:53:18;;;;;;;6.90;3.50;;;;;;;;;;4991915;28;20125;-80
2023/01/23 12:56:03;;;;;;;6.53;3.72;;;;;;;;;;5013199;28;20126;-79
2023/01/23 12:58:31;;;;;;;7.05;4.00;;;;;;;;;;4987726;28;20073;-80
2023/01/23 13:00:57;;;;;;;6.95;3.97;;;;;;;;;;4988026;28;20038;-80
2023/01/23 13:03:23;;;;;;;7.57;3.88;;;;;;;;;;4999759;28;20042;-81
2023/01/23 13:05:58;;;;;;;6.55;3.80;;;5.00;99.90;;;;;;5004348;28;20041;-77
2023/01/23 13:08:30;;;;;;;7.60;3.70;;;;;;;;;;5004239;28;20078;-79
2023/01/23 13:13:46;;;;;;;7.55;3.70;;;;;;;;;;4985691;28;20081;-76
2023/01/23 13:16:13;;;;;;;6.93;3.67;;;;;;;;;;5007728;28;20099;-78
2023/01/23 13:27:34;;;;;;;7.70;4.82;;;;;;;;;;5013375;28;20396;-82
2023/01/23 13:30:01;;;;;;;7.07;4.47;;;;;;;;;;5002677;28;20045;-80
2023/01/23 13:32:30;;;;;;;7.85;4.50;;;;;;;;;;4989335;28;20042;-75
2023/01/23 13:34:57;;;;;;;6.82;4.60;;;;;;;;;;5022941;28;20609;-83
2023/01/23 13:37:49;;;;;;;9.48;4.90;;;;;;;;;;5006851;28;20046;-85
2023/01/23 13:40:21;;;;;;;7.63;4.50;;;;;;;;;;5005587;28;20052;-82
2023/01/23 13:42:47;;;;;;;8.18;5.30;;;;;;;;;;5000254;28;20061;-84
2023/01/23 13:45:25;;;;;;;9.82;5.38;;;;;;;;;;5004156;28;20042;-83
2023/01/23 13:50:44;;;;;;;7.00;4.30;;;5.20;99.90;;;;;;4998043;28;20042;-85
2023/01/23 13:58:48;;;;;;;8.50;5.47;;;;;;;;;;5002781;28;20506;-80
2023/01/23 14:06:51;;;;;;;9.13;5.97;;;;;;;;;;5019878;28;20033;-81
2023/01/23 14:09:22;;;;;;;10.73;5.63;;;4.40;99.90;;;;;;5012934;28;20034;-80
2023/01/23 14:11:55;;;;;;;10.18;6.10;;;;;;;;;;5011841;28;20056;-80
2023/01/23 14:17:24;;;;;;;9.35;5.93;;;;;;;;;;4940438;29;20201;-80
2023/01/23 14:19:55;;;;;;;9.07;5.63;;;;;;;;;;4968340;28;20493;-79
2023/01/23 14:22:21;;;;;;;9.73;5.75;;;;;;;;;;4990036;28;20042;-80
2023/01/23 14:24:48;;;;;;;10.20;6.30;;;;;;;;;;4990846;28;20029;-79
2023/01/23 14:27:35;;;;;;;9.52;6.25;;;;;;;;;;4982706;28;20096;-79
2023/01/23 14:30:01;;;;;;;8.90;5.80;;;;;;;;;;4965543;28;20626;-79
2023/01/23 14:32:31;;;;;;;8.18;5.18;;;;;;;;;;4978628;28;20431;-79
2023/01/23 14:34:57;;;;;;;9.30;5.65;;;;;;;;;;4996419;28;20113;-79
2023/01/23 14:37:24;;;;;;;8.93;5.45;;;;;;;;;;4981366;28;20442;-79
2023/01/23 14:39:51;;;;;;;9.25;5.45;;;;;;;;;;4988741;28;20049;-79
2023/01/23 14:42:25;;;;;;;10.25;7.30;;;;;;;;;;5008145;28;20065;-75
2023/01/23 14:44:53;;;;;;;11.05;6.22;;;;;;;;;;4984097;28;20040;-78
2023/01/23 14:47:26;;;;;;;11.40;7.18;;;;;;;;;;4990827;28;20034;-78
2023/01/23 14:49:53;;;;;;;11.50;7.03;;;4.90;99.90;;;;;;5005141;28;20030;-78
2023/01/23 14:52:24;;;;;;;11.15;6.15;;;;;;;;;;5000212;28;20057;-79
2023/01/23 14:54:50;;;;;;;11.32;6.35;;;;;;;;;;4982898;28;20038;-75
2023/01/23 14:57:16;;;;;;;9.32;6.20;;;;;;;;;;5011410;28;20133;-78